createdAt,value
2022-11-15T00:01:12.776Z,49.76
2022-11-15T00:02:44.292Z,49.86
2022-11-15T00:04:15.978Z,50.30
2022-11-15T00:05:47.521Z,50.73
2022-11-15T00:07:48.346Z,50.67
2022-11-15T00:09:10.779Z,50.66
2022-11-15T00:10:42.310Z,50.59
2022-11-15T00:12:14.277Z,50.63
2022-11-15T00:13:45.813Z,50.95
2022-11-15T00:15:17.663Z,50.70
2022-11-15T00:16:49.550Z,51.23
2022-11-15T00:18:21.140Z,50.53
2022-11-15T00:19:52.716Z,50.84
2022-11-15T00:21:24.347Z,50.59
2022-11-15T00:22:56.063Z,51.02
2022-11-15T00:24:27.760Z,50.39
2022-11-15T00:25:59.991Z,50.24
2022-11-15T00:27:31.515Z,50.88
2022-11-15T00:29:03.143Z,50.63
2022-11-15T00:30:35.877Z,50.72
2022-11-15T00:32:07.471Z,50.14
2022-11-15T00:33:39.203Z,50.54
2022-11-15T00:35:10.686Z,50.96
2022-11-15T00:36:42.383Z,51.00
2022-11-15T00:38:14.100Z,50.44
2022-11-15T00:39:45.792Z,50.78
2022-11-15T00:41:17.333Z,50.67
2022-11-15T00:42:48.918Z,50.43
2022-11-15T00:44:20.591Z,50.52
2022-11-15T00:45:52.088Z,50.78
2022-11-15T00:47:23.669Z,51.04
2022-11-15T00:48:55.264Z,50.59
2022-11-15T00:50:26.899Z,50.48
2022-11-15T00:51:58.470Z,51.39
2022-11-15T00:53:30.321Z,51.35
2022-11-15T00:55:02.542Z,50.98
2022-11-15T00:56:34.157Z,50.98
2022-11-15T00:58:05.786Z,51.20
2022-11-15T00:59:37.756Z,51.55
2022-11-15T01:01:10.730Z,50.97
2022-11-15T01:02:42.344Z,51.11
2022-11-15T01:04:14.035Z,50.96
2022-11-15T01:05:45.645Z,50.81
2022-11-15T01:07:17.211Z,50.67
2022-11-15T01:08:49.112Z,50.72
2022-11-15T01:10:20.830Z,51.02
2022-11-15T01:11:53.223Z,51.51
2022-11-15T01:13:24.776Z,51.14
2022-11-15T01:14:56.319Z,50.93
2022-11-15T01:16:27.848Z,51.34
2022-11-15T01:17:59.434Z,51.79
2022-11-15T01:19:31.150Z,51.47
2022-11-15T01:21:06.999Z,51.85
2022-11-15T01:22:38.652Z,52.11
2022-11-15T01:24:12.128Z,51.73
2022-11-15T01:25:43.689Z,52.17
2022-11-15T01:27:15.207Z,52.05
2022-11-15T01:28:46.783Z,52.22
2022-11-15T01:30:18.567Z,52.17
2022-11-15T01:31:50.210Z,52.01
2022-11-15T01:33:22.777Z,52.25
2022-11-15T01:34:54.290Z,52.50
2022-11-15T01:36:26.075Z,51.99
2022-11-15T01:37:57.684Z,52.29
2022-11-15T01:39:29.355Z,51.87
2022-11-15T01:41:01.008Z,52.11
2022-11-15T01:42:32.851Z,51.69
2022-11-15T01:44:23.015Z,52.16
2022-11-15T01:46:05.873Z,52.18
2022-11-15T01:47:38.577Z,51.52
2022-11-15T01:49:13.440Z,52.12
2022-11-15T01:50:44.974Z,51.65
2022-11-15T01:52:17.972Z,52.20
2022-11-15T01:53:50.442Z,52.35
2022-11-15T01:55:22.835Z,51.67
2022-11-15T01:56:58.220Z,52.11
2022-11-15T01:58:29.947Z,51.72
2022-11-15T02:00:01.628Z,52.18
2022-11-15T02:01:33.528Z,52.33
2022-11-15T02:03:05.149Z,51.92
2022-11-15T02:04:37.689Z,52.11
2022-11-15T02:06:09.146Z,52.06
2022-11-15T02:07:40.597Z,52.34
2022-11-15T02:09:13.778Z,52.45
2022-11-15T02:10:45.314Z,52.16
2022-11-15T02:12:18.909Z,52.33
2022-11-15T02:13:50.570Z,52.51
2022-11-15T02:15:22.222Z,51.94
2022-11-15T02:16:59.724Z,52.13
2022-11-15T02:18:35.416Z,51.85
2022-11-15T02:20:16.410Z,52.21
2022-11-15T02:21:50.965Z,52.15
2022-11-15T02:23:29.542Z,52.78
2022-11-15T02:25:05.006Z,52.04
2022-11-15T02:26:54.894Z,52.87
2022-11-15T02:28:35.614Z,52.65
2022-11-15T02:30:23.763Z,52.57
2022-11-15T02:32:08.189Z,52.67
2022-11-15T02:34:09.163Z,52.83
2022-11-15T02:35:40.809Z,53.49
2022-11-15T02:37:38.526Z,53.45
2022-11-15T02:39:20.799Z,53.31
2022-11-15T02:40:57.630Z,52.96
2022-11-15T02:42:49.257Z,52.83
2022-11-15T02:44:40.416Z,52.70
2022-11-15T02:46:15.675Z,52.81
2022-11-15T02:47:47.284Z,53.03
2022-11-15T02:49:19.297Z,52.66
2022-11-15T02:50:50.896Z,52.73
2022-11-15T02:52:22.937Z,52.47
2022-11-15T02:53:54.488Z,52.21
2022-11-15T02:55:35.914Z,52.51
2022-11-15T02:57:17.338Z,52.50
2022-11-15T02:59:01.296Z,52.71
2022-11-15T03:00:35.351Z,52.89
2022-11-15T03:02:14.715Z,53.05
2022-11-15T03:03:48.950Z,53.07
2022-11-15T03:05:31.579Z,53.56
2022-11-15T03:07:06.906Z,53.13
2022-11-15T03:08:47.706Z,52.84
2022-11-15T03:10:21.584Z,53.01
2022-11-15T03:11:55.978Z,53.20
2022-11-15T03:13:36.807Z,53.86
2022-11-15T03:15:20.285Z,53.31
2022-11-15T03:16:55.263Z,53.40
2022-11-15T03:18:31.367Z,53.71
2022-11-15T03:20:05.247Z,53.79
2022-11-15T03:21:36.782Z,54.14
2022-11-15T03:23:09.562Z,53.92
2022-11-15T03:24:41.086Z,53.93
2022-11-15T03:26:13.334Z,53.11
2022-11-15T03:27:46.137Z,53.40
2022-11-15T03:29:49.812Z,53.58
2022-11-15T03:31:39.799Z,53.53
2022-11-15T03:33:11.374Z,53.07
2022-11-15T03:34:43.001Z,53.47
2022-11-15T03:36:14.633Z,53.28
2022-11-15T03:38:09.335Z,53.57
2022-11-15T03:39:40.939Z,53.67
2022-11-15T03:41:16.362Z,54.00
2022-11-15T03:42:48.533Z,53.79
2022-11-15T03:44:35.409Z,54.06
2022-11-15T03:46:08.739Z,53.76
2022-11-15T03:47:41.253Z,54.44
2022-11-15T03:49:21.234Z,54.60
2022-11-15T03:50:52.793Z,54.80
2022-11-15T03:52:24.670Z,53.88
2022-11-15T03:53:56.207Z,54.44
2022-11-15T03:55:27.800Z,54.14
2022-11-15T03:56:59.613Z,54.20
2022-11-15T03:58:31.202Z,54.25
2022-11-15T04:00:03.092Z,54.15
2022-11-15T04:01:34.808Z,54.41
2022-11-15T04:03:06.807Z,54.15
2022-11-15T04:04:38.309Z,54.73
2022-11-15T04:06:09.884Z,54.78
2022-11-15T04:07:41.414Z,55.03
2022-11-15T04:09:13.228Z,55.09
2022-11-15T04:10:45.012Z,54.95
2022-11-15T04:12:31.817Z,54.88
2022-11-15T04:14:03.800Z,54.80
2022-11-15T04:15:35.390Z,54.71
2022-11-15T04:17:06.880Z,54.67
2022-11-15T04:18:38.562Z,54.54
2022-11-15T04:20:38.657Z,54.21
2022-11-15T04:22:28.698Z,54.01
2022-11-15T04:24:06.424Z,53.98
2022-11-15T04:25:37.914Z,54.05
2022-11-15T04:27:09.707Z,54.23
2022-11-15T04:29:01.128Z,54.33
2022-11-15T04:30:32.906Z,54.49
2022-11-15T04:32:05.301Z,54.71
2022-11-15T04:33:36.910Z,54.62
2022-11-15T04:35:08.758Z,54.53
2022-11-15T04:36:58.782Z,54.70
2022-11-15T04:38:30.296Z,54.73
2022-11-15T04:40:02.200Z,54.79
2022-11-15T04:41:33.714Z,54.70
2022-11-15T04:43:05.504Z,54.79
2022-11-15T04:44:37.085Z,54.82
2022-11-15T04:46:08.624Z,54.82
2022-11-15T04:47:40.239Z,55.00
2022-11-15T04:49:11.751Z,55.04
2022-11-15T04:50:43.332Z,54.97
2022-11-15T04:52:14.978Z,55.02
2022-11-15T04:53:46.465Z,55.28
2022-11-15T04:55:18.088Z,55.29
2022-11-15T04:56:49.693Z,55.14
2022-11-15T04:58:21.347Z,55.16
2022-11-15T04:59:52.855Z,55.35
2022-11-15T05:01:24.645Z,55.35
2022-11-15T05:03:15.392Z,55.26
2022-11-15T05:04:46.942Z,55.30
2022-11-15T05:06:18.566Z,55.41
2022-11-15T05:07:50.110Z,55.40
2022-11-15T05:09:21.775Z,55.45
2022-11-15T05:10:53.436Z,55.20
2022-11-15T05:12:24.998Z,55.42
2022-11-15T05:13:56.643Z,55.15
2022-11-15T05:15:28.208Z,55.50
2022-11-15T05:16:59.834Z,55.28
2022-11-15T05:18:31.409Z,55.39
2022-11-15T05:20:03.024Z,55.50
2022-11-15T05:21:34.996Z,55.32
2022-11-15T05:23:06.680Z,55.52
2022-11-15T05:24:38.521Z,55.43
2022-11-15T05:26:10.163Z,55.24
2022-11-15T05:27:41.808Z,55.19
2022-11-15T05:29:13.413Z,54.96
2022-11-15T05:30:44.901Z,54.58
2022-11-15T05:32:16.606Z,54.36
2022-11-15T05:33:48.208Z,54.57
2022-11-15T05:35:21.329Z,54.56
2022-11-15T05:36:52.850Z,54.88
2022-11-15T05:38:24.694Z,54.97
2022-11-15T05:39:56.207Z,55.24
2022-11-15T05:41:29.227Z,55.48
2022-11-15T05:43:00.725Z,55.21
2022-11-15T05:44:32.327Z,55.63
2022-11-15T05:46:03.853Z,55.41
2022-11-15T05:47:35.544Z,55.87
2022-11-15T05:49:07.326Z,56.01
2022-11-15T05:50:39.712Z,55.75
2022-11-15T05:52:11.378Z,55.69
2022-11-15T05:53:43.139Z,55.73
2022-11-15T05:55:14.643Z,55.54
2022-11-15T05:56:46.308Z,55.73
2022-11-15T05:58:18.037Z,56.01
2022-11-15T05:59:49.837Z,55.67
2022-11-15T06:01:21.416Z,55.78
2022-11-15T06:02:53.002Z,55.95
2022-11-15T06:04:24.657Z,56.36
2022-11-15T06:05:57.208Z,56.10
2022-11-15T06:07:30.108Z,56.35
2022-11-15T06:09:01.850Z,56.16
2022-11-15T06:10:33.805Z,55.76
2022-11-15T06:12:05.552Z,55.71
2022-11-15T06:13:37.297Z,56.19
2022-11-15T06:15:09.169Z,55.64
2022-11-15T06:16:40.988Z,56.18
2022-11-15T06:18:12.880Z,56.28
2022-11-15T06:19:44.714Z,56.46
2022-11-15T06:21:16.469Z,55.75
2022-11-15T06:22:47.974Z,55.61
2022-11-15T06:24:19.615Z,56.22
2022-11-15T06:25:51.161Z,56.12
2022-11-15T06:27:22.900Z,55.29
2022-11-15T06:28:54.534Z,55.05
2022-11-15T06:30:26.523Z,55.38
2022-11-15T06:31:58.089Z,55.79
2022-11-15T06:33:30.090Z,55.83
2022-11-15T06:35:01.920Z,55.70
2022-11-15T06:36:35.441Z,55.59
2022-11-15T06:38:07.937Z,54.98
2022-11-15T06:39:39.687Z,54.96
2022-11-15T06:41:11.463Z,55.90
2022-11-15T06:42:42.970Z,55.52
2022-11-15T06:44:14.873Z,55.47
2022-11-15T06:45:46.580Z,55.58
2022-11-15T06:47:18.224Z,55.76
2022-11-15T06:48:51.703Z,55.95
2022-11-15T06:50:23.202Z,55.69
2022-11-15T06:51:54.872Z,55.70
2022-11-15T06:53:26.546Z,55.75
2022-11-15T06:54:58.216Z,55.80
2022-11-15T06:56:29.765Z,55.74
2022-11-15T06:58:02.019Z,55.54
2022-11-15T06:59:39.211Z,55.41
2022-11-15T07:01:12.797Z,55.36
2022-11-15T07:02:44.446Z,55.60
2022-11-15T07:04:16.259Z,55.55
2022-11-15T07:05:58.505Z,55.58
2022-11-15T07:07:33.169Z,55.61
2022-11-15T07:09:04.845Z,55.72
2022-11-15T07:10:36.977Z,55.84
2022-11-15T07:12:08.496Z,55.75
2022-11-15T07:13:40.161Z,55.36
2022-11-15T07:15:11.987Z,55.17
2022-11-15T07:16:43.648Z,55.01
2022-11-15T07:18:15.345Z,54.70
2022-11-15T07:19:47.032Z,55.00
2022-11-15T07:21:20.389Z,54.71
2022-11-15T07:23:00.273Z,55.07
2022-11-15T07:24:31.849Z,54.55
2022-11-15T07:26:03.865Z,54.50
2022-11-15T07:27:35.703Z,54.82
2022-11-15T07:29:07.565Z,54.72
2022-11-15T07:30:44.953Z,54.35
2022-11-15T07:32:16.998Z,54.62
2022-11-15T07:33:48.705Z,54.51
2022-11-15T07:35:20.470Z,54.32
2022-11-15T07:36:52.205Z,54.32
2022-11-15T07:38:23.858Z,54.18
2022-11-15T07:39:55.593Z,54.48
2022-11-15T07:41:27.187Z,54.27
2022-11-15T07:43:01.983Z,54.14
2022-11-15T07:44:33.610Z,54.33
2022-11-15T07:46:06.061Z,53.93
2022-11-15T07:47:37.768Z,53.80
2022-11-15T07:49:09.309Z,53.83
2022-11-15T07:50:43.914Z,54.26
2022-11-15T07:52:15.622Z,54.06
2022-11-15T07:53:47.269Z,53.34
2022-11-15T07:55:18.859Z,53.88
2022-11-15T07:56:50.448Z,53.89
2022-11-15T07:58:22.145Z,53.84
2022-11-15T07:59:54.052Z,54.27
2022-11-15T08:01:26.039Z,53.31
2022-11-15T08:03:10.588Z,53.38
2022-11-15T08:04:43.391Z,53.04
2022-11-15T08:06:14.982Z,53.67
2022-11-15T08:07:46.885Z,53.01
2022-11-15T08:09:18.477Z,52.94
2022-11-15T08:10:50.090Z,53.88
2022-11-15T08:12:21.772Z,53.42
2022-11-15T08:13:53.401Z,53.19
2022-11-15T08:15:25.133Z,53.22
2022-11-15T08:16:56.744Z,53.10
2022-11-15T08:18:31.353Z,52.65
2022-11-15T08:20:03.851Z,52.79
2022-11-15T08:21:36.347Z,53.03
2022-11-15T08:23:07.982Z,52.76
2022-11-15T08:24:39.609Z,52.91
2022-11-15T08:26:11.255Z,52.55
2022-11-15T08:27:42.922Z,52.55
2022-11-15T08:29:14.605Z,52.03
2022-11-15T08:30:46.795Z,52.37
2022-11-15T08:32:18.936Z,52.40
2022-11-15T08:33:50.665Z,52.12
2022-11-15T08:35:26.260Z,52.14
2022-11-15T08:37:00.639Z,52.09
2022-11-15T08:38:32.686Z,51.94
2022-11-15T08:40:04.865Z,51.67
2022-11-15T08:41:37.219Z,51.77
2022-11-15T08:43:08.884Z,51.80
2022-11-15T08:44:40.504Z,51.70
2022-11-15T08:46:13.028Z,51.77
2022-11-15T08:47:48.440Z,51.86
2022-11-15T08:49:22.874Z,51.67
2022-11-15T08:50:55.408Z,51.80
2022-11-15T08:52:27.025Z,51.43
2022-11-15T08:53:58.667Z,51.57
2022-11-15T08:55:30.588Z,51.54
2022-11-15T08:57:02.221Z,51.35
2022-11-15T08:58:34.299Z,51.10
2022-11-15T09:00:06.822Z,50.97
2022-11-15T09:01:38.670Z,50.86
2022-11-15T09:03:10.697Z,50.81
2022-11-15T09:04:43.411Z,50.95
2022-11-15T09:06:15.315Z,51.00
2022-11-15T09:07:47.052Z,51.09
2022-11-15T09:09:18.673Z,50.96
2022-11-15T09:10:50.405Z,50.58
2022-11-15T09:12:22.238Z,50.23
2022-11-15T09:13:54.021Z,50.22
2022-11-15T09:15:25.608Z,50.10
2022-11-15T09:16:57.276Z,50.09
2022-11-15T09:18:28.982Z,50.01
2022-11-15T09:20:01.231Z,50.16
2022-11-15T09:21:32.897Z,49.60
2022-11-15T09:23:04.662Z,49.79
2022-11-15T09:24:36.375Z,49.58
2022-11-15T09:26:08.243Z,49.73
2022-11-15T09:29:28.804Z,49.66
2022-11-15T09:31:01.246Z,49.80
2022-11-15T09:32:38.843Z,49.60
2022-11-15T09:34:11.074Z,49.50
2022-11-15T09:35:42.729Z,49.18
2022-11-15T09:37:14.449Z,48.87
2022-11-15T09:38:46.407Z,49.15
2022-11-15T09:40:18.753Z,49.12
2022-11-15T09:41:59.333Z,48.53
2022-11-15T09:43:54.398Z,48.87
2022-11-15T09:45:26.088Z,48.54
2022-11-15T09:47:01.665Z,48.31
2022-11-15T09:49:00.170Z,48.38
2022-11-15T09:50:40.388Z,48.15
2022-11-15T09:52:12.081Z,48.15
2022-11-15T09:56:00.229Z,48.00
2022-11-15T09:57:31.883Z,47.78
2022-11-15T09:59:16.562Z,47.59
2022-11-15T10:00:49.827Z,47.39
2022-11-15T10:02:21.561Z,47.60
2022-11-15T10:03:53.259Z,47.35
2022-11-15T10:05:25.579Z,47.28
2022-11-15T10:07:04.326Z,47.54
2022-11-15T10:08:45.712Z,47.12
2022-11-15T10:10:32.698Z,47.10
2022-11-15T10:12:04.250Z,46.88
2022-11-15T10:13:37.985Z,46.80
2022-11-15T10:15:12.538Z,46.87
2022-11-15T10:17:02.596Z,46.58
2022-11-15T10:18:42.421Z,46.39
2022-11-15T10:20:14.275Z,46.33
2022-11-15T10:21:45.875Z,46.16
2022-11-15T10:23:18.785Z,46.13
2022-11-15T10:24:50.836Z,46.31
2022-11-15T10:26:22.589Z,46.57
2022-11-15T10:27:58.124Z,46.41
2022-11-15T10:29:30.081Z,46.31
2022-11-15T10:31:02.522Z,46.17
2022-11-15T10:32:34.862Z,46.28
2022-11-15T10:34:16.776Z,46.04
2022-11-15T10:35:48.354Z,45.93
2022-11-15T10:37:28.865Z,45.99
2022-11-15T10:39:00.638Z,45.71
2022-11-15T10:40:32.307Z,45.79
2022-11-15T10:42:20.004Z,45.93
2022-11-15T10:44:14.382Z,45.83
2022-11-15T10:45:46.491Z,45.65
2022-11-15T10:47:23.982Z,45.71
2022-11-15T10:49:02.922Z,45.35
2022-11-15T10:50:34.615Z,45.25
2022-11-15T10:52:20.442Z,45.22
2022-11-15T10:53:52.237Z,45.07
2022-11-15T10:55:27.862Z,44.98
2022-11-15T10:56:59.966Z,45.01
2022-11-15T10:58:31.803Z,44.69
2022-11-15T11:00:16.263Z,44.57
2022-11-15T11:01:48.255Z,44.56
2022-11-15T11:03:28.975Z,44.56
2022-11-15T11:05:01.831Z,44.87
2022-11-15T11:06:53.759Z,44.69
2022-11-15T11:08:25.623Z,44.77
2022-11-15T11:10:44.254Z,44.74
2022-11-15T11:12:12.398Z,44.36
2022-11-15T11:13:44.025Z,44.15
2022-11-15T11:15:16.206Z,43.99
2022-11-15T11:16:53.448Z,44.12
2022-11-15T11:19:00.521Z,44.07
2022-11-15T11:20:37.560Z,43.85
2022-11-15T11:22:18.350Z,43.73
2022-11-15T11:23:59.732Z,43.52
2022-11-15T11:25:31.460Z,43.16
2022-11-15T11:27:29.395Z,43.21
2022-11-15T11:29:04.143Z,42.94
2022-11-15T11:30:53.625Z,42.76
2022-11-15T11:32:43.934Z,42.87
2022-11-15T11:34:15.458Z,42.66
2022-11-15T11:35:56.176Z,42.42
2022-11-15T11:37:47.095Z,42.54
2022-11-15T11:39:27.630Z,42.48
2022-11-15T11:41:02.385Z,42.46
2022-11-15T11:42:34.039Z,42.22
2022-11-15T11:44:24.827Z,42.59
2022-11-15T11:45:56.970Z,42.39
2022-11-15T11:47:32.360Z,42.36
2022-11-15T11:49:19.260Z,42.20
2022-11-15T11:50:50.956Z,42.17
2022-11-15T11:52:28.303Z,42.18
2022-11-15T11:54:16.412Z,42.04
2022-11-15T11:55:48.900Z,41.98
2022-11-15T11:57:35.159Z,41.75
2022-11-15T11:59:08.537Z,41.82
2022-11-15T12:00:44.691Z,41.63
2022-11-15T12:02:16.421Z,41.50
2022-11-15T12:03:57.601Z,41.50
2022-11-15T12:05:41.257Z,41.54
2022-11-15T12:07:24.553Z,41.43
2022-11-15T12:09:15.877Z,41.56
2022-11-15T12:10:48.668Z,41.34
2022-11-15T12:12:24.318Z,41.24
2022-11-15T12:14:02.718Z,41.02
2022-11-15T12:15:37.100Z,41.09
2022-11-15T12:17:12.050Z,41.12
2022-11-15T12:18:45.759Z,40.97
2022-11-15T12:20:27.565Z,40.98
2022-11-15T12:22:04.328Z,41.25
2022-11-15T12:23:44.977Z,41.01
2022-11-15T12:25:16.969Z,40.93
2022-11-15T12:26:59.206Z,40.89
2022-11-15T12:28:34.292Z,40.69
2022-11-15T12:30:10.688Z,40.44
2022-11-15T12:31:43.107Z,40.24
2022-11-15T12:33:33.280Z,40.09
2022-11-15T12:35:06.383Z,40.05
2022-11-15T12:36:41.813Z,39.94
2022-11-15T12:38:13.809Z,39.87
2022-11-15T12:40:04.473Z,39.74
2022-11-15T12:41:39.685Z,39.83
2022-11-15T12:43:14.299Z,39.87
2022-11-15T12:44:49.037Z,39.85
2022-11-15T12:46:25.706Z,39.78
2022-11-15T12:47:57.981Z,39.65
2022-11-15T12:49:30.008Z,39.43
2022-11-15T12:51:02.138Z,39.71
2022-11-15T12:52:34.332Z,39.73
2022-11-15T12:54:26.900Z,39.70
2022-11-15T12:56:05.035Z,39.48
2022-11-15T12:57:37.712Z,39.61
2022-11-15T12:59:09.293Z,39.38
2022-11-15T13:00:40.959Z,39.17
2022-11-15T13:02:18.583Z,39.17
2022-11-15T13:04:08.943Z,39.16
2022-11-15T13:05:40.835Z,39.10
2022-11-15T13:07:32.536Z,39.11
2022-11-15T13:09:05.292Z,39.32
2022-11-15T13:10:36.945Z,39.07
2022-11-15T13:12:23.377Z,39.06
2022-11-15T13:13:54.974Z,39.04
2022-11-15T13:15:42.789Z,39.04
2022-11-15T13:17:20.634Z,38.86
2022-11-15T13:18:56.018Z,38.89
2022-11-15T13:20:31.467Z,38.88
2022-11-15T13:22:24.544Z,38.92
2022-11-15T13:23:56.702Z,38.90
2022-11-15T13:25:38.907Z,39.00
2022-11-15T13:27:17.037Z,39.09
2022-11-15T13:28:53.590Z,39.04
2022-11-15T13:30:28.255Z,39.07
2022-11-15T13:32:00.141Z,38.98
2022-11-15T13:33:38.842Z,38.96
2022-11-15T13:35:10.565Z,38.89
2022-11-15T13:36:42.424Z,38.62
2022-11-15T13:38:26.901Z,38.52
2022-11-15T13:40:03.399Z,38.65
2022-11-15T13:41:36.056Z,38.44
2022-11-15T13:43:22.849Z,38.42
2022-11-15T13:44:58.638Z,38.38
2022-11-15T13:46:30.937Z,38.41
2022-11-15T13:48:04.003Z,38.38
2022-11-15T13:49:35.748Z,38.61
2022-11-15T13:51:28.323Z,38.36
2022-11-15T13:53:00.365Z,38.39
2022-11-15T13:54:34.285Z,38.30
2022-11-15T13:56:06.097Z,38.39
2022-11-15T13:57:40.868Z,38.46
2022-11-15T13:59:15.917Z,38.39
2022-11-15T14:00:48.424Z,38.43
2022-11-15T14:02:21.663Z,38.38
2022-11-15T14:03:54.969Z,38.45
2022-11-15T14:05:26.735Z,38.50
2022-11-15T14:06:58.965Z,38.45
2022-11-15T14:08:30.972Z,38.48
2022-11-15T14:10:18.306Z,38.41
2022-11-15T14:11:51.232Z,38.46
2022-11-15T14:13:29.774Z,38.43
2022-11-15T14:15:02.755Z,38.27
2022-11-15T14:16:35.714Z,38.35
2022-11-15T14:18:07.510Z,38.21
2022-11-15T14:19:39.568Z,38.30
2022-11-15T14:21:11.679Z,38.18
2022-11-15T14:22:51.830Z,38.19
2022-11-15T14:24:23.641Z,38.24
2022-11-15T14:25:56.363Z,38.02
2022-11-15T14:27:28.951Z,38.20
2022-11-15T14:29:19.154Z,38.39
2022-11-15T14:30:52.853Z,38.41
2022-11-15T14:32:25.492Z,38.50
2022-11-15T14:33:57.236Z,38.27
2022-11-15T14:35:29.004Z,38.43
2022-11-15T14:37:00.942Z,38.57
2022-11-15T14:38:32.843Z,38.41
2022-11-15T14:40:05.170Z,38.63
2022-11-15T14:41:38.995Z,38.54
2022-11-15T14:43:11.680Z,38.65
2022-11-15T14:44:45.964Z,38.76
2022-11-15T14:46:18.079Z,39.16
2022-11-15T14:47:49.855Z,38.90
2022-11-15T14:49:21.500Z,38.84
2022-11-15T14:50:53.430Z,38.86
2022-11-15T14:52:31.550Z,38.85
2022-11-15T14:54:04.367Z,39.06
2022-11-15T14:55:39.391Z,39.00
2022-11-15T14:57:11.039Z,39.07
2022-11-15T14:58:42.933Z,39.35
2022-11-15T15:00:14.861Z,38.96
2022-11-15T15:01:46.512Z,39.10
2022-11-15T15:03:18.102Z,39.14
2022-11-15T15:04:50.028Z,39.37
2022-11-15T15:06:21.597Z,39.26
2022-11-15T15:07:54.461Z,39.34
2022-11-15T15:09:26.281Z,39.19
2022-11-15T15:10:58.039Z,39.28
2022-11-15T15:12:31.258Z,39.25
2022-11-15T15:14:02.917Z,39.45
2022-11-15T15:15:35.380Z,39.54
2022-11-15T15:17:07.021Z,39.54
2022-11-15T15:18:38.691Z,39.56
2022-11-15T15:20:10.696Z,39.64
2022-11-15T15:21:42.188Z,39.85
2022-11-15T15:23:17.834Z,40.07
2022-11-15T15:24:49.356Z,39.73
2022-11-15T15:26:21.104Z,40.08
2022-11-15T15:27:52.830Z,40.10
2022-11-15T15:29:24.576Z,39.94
2022-11-15T15:30:56.200Z,40.16
2022-11-15T15:32:27.790Z,39.92
2022-11-15T15:33:59.645Z,39.80
2022-11-15T15:35:32.192Z,39.91
2022-11-15T15:37:09.601Z,40.09
2022-11-15T15:38:42.656Z,40.08
2022-11-15T15:40:18.087Z,40.45
2022-11-15T15:41:54.788Z,40.08
2022-11-15T15:43:28.831Z,40.55
2022-11-15T15:45:00.526Z,40.62
2022-11-15T15:46:32.209Z,40.50
2022-11-15T15:48:03.837Z,40.70
2022-11-15T15:49:35.668Z,41.00
2022-11-15T15:51:15.338Z,40.75
2022-11-15T15:52:51.938Z,41.06
2022-11-15T15:54:23.550Z,41.27
2022-11-15T15:55:55.065Z,41.31
2022-11-15T15:57:26.690Z,41.27
2022-11-15T15:58:58.630Z,41.19
2022-11-15T16:00:30.292Z,41.01
2022-11-15T16:02:01.944Z,41.08
2022-11-15T16:03:33.599Z,40.88
2022-11-15T16:05:05.575Z,41.28
2022-11-15T16:06:39.377Z,41.47
2022-11-15T16:08:15.389Z,41.36
2022-11-15T16:10:02.435Z,41.48
2022-11-15T16:11:34.157Z,41.48
2022-11-15T16:13:05.822Z,41.28
2022-11-15T16:14:37.460Z,41.54
2022-11-15T16:16:09.345Z,41.28
2022-11-15T16:17:42.054Z,41.21
2022-11-15T16:19:13.777Z,41.33
2022-11-15T16:20:51.137Z,41.16
2022-11-15T16:22:22.840Z,41.32
2022-11-15T16:23:54.820Z,41.61
2022-11-15T16:25:26.667Z,41.70
2022-11-15T16:26:58.835Z,41.53
2022-11-15T16:28:32.242Z,41.89
2022-11-15T16:30:04.883Z,41.88
2022-11-15T16:31:36.858Z,41.96
2022-11-15T16:33:08.671Z,42.29
2022-11-15T16:34:43.803Z,42.11
2022-11-15T16:36:25.647Z,42.17
2022-11-15T16:38:00.675Z,42.30
2022-11-15T16:39:32.678Z,42.20
2022-11-15T16:41:04.302Z,42.36
2022-11-15T16:42:35.878Z,42.39
2022-11-15T16:44:07.413Z,42.53
2022-11-15T16:45:38.973Z,42.84
2022-11-15T16:47:18.170Z,42.63
2022-11-15T16:48:49.810Z,42.66
2022-11-15T16:50:28.695Z,42.84
2022-11-15T16:52:01.566Z,43.04
2022-11-15T16:53:33.533Z,42.90
2022-11-15T16:55:05.583Z,43.02
2022-11-15T16:56:37.508Z,43.03
2022-11-15T16:58:09.730Z,43.06
2022-11-15T16:59:41.376Z,43.18
2022-11-15T17:01:17.051Z,43.29
2022-11-15T17:02:49.417Z,43.47
2022-11-15T17:04:22.730Z,43.72
2022-11-15T17:05:54.515Z,43.68
2022-11-15T17:07:26.491Z,43.76
2022-11-15T17:08:58.269Z,43.84
2022-11-15T17:10:29.883Z,44.06
2022-11-15T17:12:01.543Z,43.89
2022-11-15T17:13:34.143Z,43.94
2022-11-15T17:15:06.019Z,44.12
2022-11-15T17:16:42.327Z,44.01
2022-11-15T17:18:15.713Z,44.22
2022-11-15T17:19:47.847Z,44.78
2022-11-15T17:21:22.626Z,44.35
2022-11-15T17:22:54.335Z,44.35
2022-11-15T17:24:25.898Z,44.47
2022-11-15T17:26:23.764Z,44.37
2022-11-15T17:27:53.267Z,44.64
2022-11-15T17:29:25.013Z,44.63
2022-11-15T17:30:56.787Z,44.68
2022-11-15T17:32:28.500Z,44.70
2022-11-15T17:34:03.288Z,44.81
2022-11-15T17:35:34.973Z,44.80
2022-11-15T17:37:06.602Z,44.88
2022-11-15T17:38:38.133Z,45.16
2022-11-15T17:40:09.865Z,45.12
2022-11-15T17:41:41.440Z,45.08
2022-11-15T17:43:13.286Z,45.07
2022-11-15T17:44:45.145Z,44.96
2022-11-15T17:46:18.076Z,45.31
2022-11-15T17:47:49.839Z,45.14
2022-11-15T17:49:21.466Z,45.08
2022-11-15T17:50:56.848Z,45.18
2022-11-15T17:52:28.361Z,45.15
2022-11-15T17:54:00.131Z,45.07
2022-11-15T17:55:32.651Z,45.16
2022-11-15T17:57:04.296Z,45.56
2022-11-15T17:58:36.051Z,45.38
2022-11-15T18:00:08.147Z,45.22
2022-11-15T18:01:40.000Z,45.43
2022-11-15T18:03:11.882Z,45.63
2022-11-15T18:04:43.491Z,45.39
2022-11-15T18:06:15.175Z,45.66
2022-11-15T18:07:46.896Z,45.54
2022-11-15T18:09:19.336Z,45.55
2022-11-15T18:10:51.310Z,45.55
2022-11-15T18:12:23.239Z,45.78
2022-11-15T18:13:56.094Z,45.88
2022-11-15T18:15:28.222Z,45.69
2022-11-15T18:16:59.867Z,45.72
2022-11-15T18:18:32.179Z,45.83
2022-11-15T18:20:04.364Z,46.20
2022-11-15T18:21:56.004Z,45.87
2022-11-15T18:23:28.265Z,45.99
2022-11-15T18:24:59.839Z,46.22
2022-11-15T18:26:31.506Z,46.17
2022-11-15T18:28:03.163Z,46.22
2022-11-15T18:29:38.022Z,46.01
2022-11-15T18:31:36.157Z,46.19
2022-11-15T18:33:07.801Z,45.69
2022-11-15T18:34:39.485Z,46.27
2022-11-15T18:36:14.621Z,46.04
2022-11-15T18:37:46.145Z,46.01
2022-11-15T18:39:17.820Z,46.42
2022-11-15T18:40:49.562Z,46.12
2022-11-15T18:42:21.124Z,46.47
2022-11-15T18:43:52.915Z,46.53
2022-11-15T18:45:24.659Z,45.94
2022-11-15T18:46:56.647Z,46.03
2022-11-15T18:48:29.868Z,46.23
2022-11-15T18:50:01.551Z,45.88
2022-11-15T18:51:34.015Z,46.17
2022-11-15T18:53:05.637Z,46.49
2022-11-15T18:54:37.270Z,46.58
2022-11-15T18:56:15.925Z,46.27
2022-11-15T18:57:47.691Z,46.24
2022-11-15T18:59:19.928Z,46.01
2022-11-15T19:00:51.473Z,46.30
2022-11-15T19:02:23.108Z,46.57
2022-11-15T19:03:55.640Z,46.34
2022-11-15T19:05:27.494Z,46.62
2022-11-15T19:06:59.129Z,46.57
2022-11-15T19:08:35.187Z,46.67
2022-11-15T19:10:07.618Z,46.83
2022-11-15T19:11:39.954Z,46.67
2022-11-15T19:13:11.553Z,46.66
2022-11-15T19:14:43.112Z,47.03
2022-11-15T19:16:15.164Z,46.70
2022-11-15T19:17:46.920Z,47.40
2022-11-15T19:19:19.601Z,47.19
2022-11-15T19:20:51.270Z,47.05
2022-11-15T19:22:22.872Z,47.09
2022-11-15T19:23:54.604Z,47.18
2022-11-15T19:25:29.144Z,47.29
2022-11-15T19:27:00.875Z,47.03
2022-11-15T19:28:32.829Z,46.95
2022-11-15T19:30:04.687Z,47.05
2022-11-15T19:31:36.384Z,47.07
2022-11-15T19:33:08.042Z,47.09
2022-11-15T19:34:41.992Z,47.23
2022-11-15T19:36:14.477Z,47.37
2022-11-15T19:37:46.395Z,47.21
2022-11-15T19:39:18.218Z,47.37
2022-11-15T19:40:49.867Z,47.16
2022-11-15T19:42:21.523Z,47.51
2022-11-15T19:43:53.602Z,47.70
2022-11-15T19:45:25.284Z,47.56
2022-11-15T19:46:57.007Z,47.79
2022-11-15T19:48:29.555Z,47.86
2022-11-15T19:50:01.173Z,47.67
2022-11-15T19:51:33.232Z,48.40
2022-11-15T19:53:04.944Z,47.93
2022-11-15T19:54:37.053Z,47.76
2022-11-15T19:56:10.803Z,47.95
2022-11-15T19:57:42.848Z,48.43
2022-11-15T19:59:15.382Z,48.29
2022-11-15T20:00:47.062Z,48.23
2022-11-15T20:02:18.698Z,48.43
2022-11-15T20:03:51.035Z,48.30
2022-11-15T20:05:22.822Z,48.35
2022-11-15T20:06:54.623Z,47.94
2022-11-15T20:08:26.579Z,48.04
2022-11-15T20:09:58.184Z,48.07
2022-11-15T20:11:29.820Z,48.57
2022-11-15T20:13:01.870Z,48.18
2022-11-15T20:14:35.511Z,48.53
2022-11-15T20:16:07.329Z,48.68
2022-11-15T20:17:39.082Z,48.90
2022-11-15T20:19:12.520Z,48.91